Location Greenlaw, NA, UK

ob NPTOHCUK 282230Z AUTO 32009G07KT CLR CLR 10/09 A2955 RMK SLPNO 

2017.06.28 2230 UTC
Wind from the NW (321 degrees) at 10 MPH (9 KT) gusting to 8 MPH (7 KT)
Visibility    Mile(s)
Weather: CLR
Sky Conditions  clear
Temperature 49.5 F (10 C)
Dew Point 47.8 F (9 C)
Relative Humidity 94%
Pressure   29.557 in. Hg (1001 hPa)
Rain  0.00 in.
Daily Rain  in.

Station Name  New Palace Theatre Organ Heritage Centre
Longitude, Latitude  -2.463611, 55.706389
Elevation 525
Station URL http://www.nptohc.co.uk/weather
Software Type WeatherDisplay:10.37P